sensor_id;sensor_type;location;lat;lon;timestamp;P1;durP1;ratioP1;P2;durP2;ratioP2
7833;SDS011;3962;42.696;23.354;2023-05-23T00:02:19;11.90;;;9.07;;
7833;SDS011;3962;42.696;23.354;2023-05-23T00:04:46;11.43;;;8.40;;
7833;SDS011;3962;42.696;23.354;2023-05-23T00:07:13;16.20;;;9.17;;
7833;SDS011;3962;42.696;23.354;2023-05-23T00:09:42;11.37;;;8.57;;
7833;SDS011;3962;42.696;23.354;2023-05-23T00:12:09;13.07;;;9.10;;
7833;SDS011;3962;42.696;23.354;2023-05-23T00:14:36;14.73;;;9.83;;
7833;SDS011;3962;42.696;23.354;2023-05-23T00:17:04;12.13;;;9.47;;
7833;SDS011;3962;42.696;23.354;2023-05-23T00:19:32;11.03;;;8.80;;
7833;SDS011;3962;42.696;23.354;2023-05-23T00:22:00;12.03;;;8.83;;
7833;SDS011;3962;42.696;23.354;2023-05-23T00:24:27;14.77;;;9.53;;
7833;SDS011;3962;42.696;23.354;2023-05-23T00:26:55;11.87;;;8.57;;
7833;SDS011;3962;42.696;23.354;2023-05-23T00:29:23;11.97;;;9.03;;
7833;SDS011;3962;42.696;23.354;2023-05-23T00:31:49;13.70;;;9.77;;
7833;SDS011;3962;42.696;23.354;2023-05-23T00:34:16;13.20;;;9.53;;
7833;SDS011;3962;42.696;23.354;2023-05-23T00:36:43;12.67;;;9.83;;
7833;SDS011;3962;42.696;23.354;2023-05-23T00:39:11;16.50;;;11.00;;
7833;SDS011;3962;42.696;23.354;2023-05-23T00:41:43;17.07;;;10.47;;
7833;SDS011;3962;42.696;23.354;2023-05-23T00:44:12;14.87;;;10.63;;
7833;SDS011;3962;42.696;23.354;2023-05-23T00:46:38;16.03;;;11.67;;
7833;SDS011;3962;42.696;23.354;2023-05-23T00:49:07;13.90;;;10.93;;
7833;SDS011;3962;42.696;23.354;2023-05-23T00:51:34;16.80;;;11.20;;
7833;SDS011;3962;42.696;23.354;2023-05-23T00:54:02;17.27;;;9.87;;
7833;SDS011;3962;42.696;23.354;2023-05-23T00:56:30;18.57;;;11.67;;
7833;SDS011;3962;42.696;23.354;2023-05-23T00:58:57;15.67;;;10.77;;
7833;SDS011;3962;42.696;23.354;2023-05-23T01:01:27;14.80;;;10.27;;
7833;SDS011;3962;42.696;23.354;2023-05-23T01:03:53;15.37;;;10.80;;
7833;SDS011;3962;42.696;23.354;2023-05-23T01:06:20;15.57;;;11.30;;
7833;SDS011;3962;42.696;23.354;2023-05-23T01:08:47;15.97;;;11.83;;
7833;SDS011;3962;42.696;23.354;2023-05-23T01:11:16;17.23;;;12.27;;
7833;SDS011;3962;42.696;23.354;2023-05-23T01:13:50;20.20;;;13.53;;
7833;SDS011;3962;42.696;23.354;2023-05-23T01:16:28;17.43;;;12.87;;
7833;SDS011;3962;42.696;23.354;2023-05-23T01:19:03;23.60;;;13.03;;
7833;SDS011;3962;42.696;23.354;2023-05-23T01:21:43;18.47;;;13.07;;
7833;SDS011;3962;42.696;23.354;2023-05-23T01:24:28;17.80;;;12.67;;
7833;SDS011;3962;42.696;23.354;2023-05-23T01:27:04;15.57;;;11.20;;
7833;SDS011;3962;42.696;23.354;2023-05-23T01:29:38;15.97;;;11.73;;
7833;SDS011;3962;42.696;23.354;2023-05-23T01:32:11;18.53;;;11.53;;
7833;SDS011;3962;42.696;23.354;2023-05-23T01:34:39;17.43;;;11.70;;
7833;SDS011;3962;42.696;23.354;2023-05-23T01:37:07;14.87;;;11.23;;
7833;SDS011;3962;42.696;23.354;2023-05-23T01:39:35;20.37;;;12.87;;
7833;SDS011;3962;42.696;23.354;2023-05-23T01:42:02;18.40;;;12.63;;
7833;SDS011;3962;42.696;23.354;2023-05-23T01:44:30;16.97;;;12.70;;
7833;SDS011;3962;42.696;23.354;2023-05-23T01:46:59;18.93;;;12.27;;
7833;SDS011;3962;42.696;23.354;2023-05-23T01:49:28;17.60;;;11.70;;
7833;SDS011;3962;42.696;23.354;2023-05-23T01:51:57;16.07;;;11.87;;
7833;SDS011;3962;42.696;23.354;2023-05-23T01:54:25;17.27;;;12.10;;
7833;SDS011;3962;42.696;23.354;2023-05-23T01:56:54;15.77;;;12.57;;
7833;SDS011;3962;42.696;23.354;2023-05-23T01:59:21;16.67;;;12.37;;
7833;SDS011;3962;42.696;23.354;2023-05-23T02:01:48;17.73;;;12.10;;
7833;SDS011;3962;42.696;23.354;2023-05-23T02:04:16;15.43;;;12.63;;
7833;SDS011;3962;42.696;23.354;2023-05-23T02:06:43;22.90;;;13.37;;
7833;SDS011;3962;42.696;23.354;2023-05-23T02:09:11;17.57;;;13.23;;
7833;SDS011;3962;42.696;23.354;2023-05-23T02:11:38;19.07;;;13.20;;
7833;SDS011;3962;42.696;23.354;2023-05-23T02:14:05;17.80;;;13.37;;
7833;SDS011;3962;42.696;23.354;2023-05-23T02:16:32;21.20;;;13.90;;
7833;SDS011;3962;42.696;23.354;2023-05-23T02:19:00;19.13;;;13.73;;
7833;SDS011;3962;42.696;23.354;2023-05-23T02:21:29;20.03;;;14.37;;
7833;SDS011;3962;42.696;23.354;2023-05-23T02:23:56;18.70;;;13.30;;
7833;SDS011;3962;42.696;23.354;2023-05-23T02:26:23;22.83;;;14.70;;
7833;SDS011;3962;42.696;23.354;2023-05-23T02:28:51;18.60;;;13.60;;
7833;SDS011;3962;42.696;23.354;2023-05-23T02:31:19;22.40;;;14.97;;
7833;SDS011;3962;42.696;23.354;2023-05-23T02:33:46;24.70;;;17.05;;
7833;SDS011;3962;42.696;23.354;2023-05-23T02:36:13;19.53;;;13.97;;
7833;SDS011;3962;42.696;23.354;2023-05-23T02:38:41;23.60;;;14.47;;
7833;SDS011;3962;42.696;23.354;2023-05-23T02:41:08;23.03;;;14.93;;
7833;SDS011;3962;42.696;23.354;2023-05-23T02:43:35;28.50;;;15.90;;
7833;SDS011;3962;42.696;23.354;2023-05-23T02:46:02;21.43;;;14.57;;
7833;SDS011;3962;42.696;23.354;2023-05-23T02:48:28;24.17;;;14.73;;
7833;SDS011;3962;42.696;23.354;2023-05-23T02:50:55;22.60;;;14.77;;
7833;SDS011;3962;42.696;23.354;2023-05-23T02:53:22;19.93;;;13.67;;
7833;SDS011;3962;42.696;23.354;2023-05-23T02:55:50;22.33;;;12.77;;
7833;SDS011;3962;42.696;23.354;2023-05-23T02:58:17;24.30;;;13.90;;
7833;SDS011;3962;42.696;23.354;2023-05-23T03:00:44;20.33;;;14.30;;
7833;SDS011;3962;42.696;23.354;2023-05-23T03:03:11;28.07;;;18.07;;
7833;SDS011;3962;42.696;23.354;2023-05-23T03:05:38;25.50;;;15.47;;
7833;SDS011;3962;42.696;23.354;2023-05-23T03:08:05;37.23;;;21.30;;
7833;SDS011;3962;42.696;23.354;2023-05-23T03:10:32;24.93;;;14.70;;
7833;SDS011;3962;42.696;23.354;2023-05-23T03:13:01;29.07;;;17.90;;
7833;SDS011;3962;42.696;23.354;2023-05-23T03:15:28;19.23;;;13.77;;
7833;SDS011;3962;42.696;23.354;2023-05-23T03:17:54;13.03;;;9.17;;
7833;SDS011;3962;42.696;23.354;2023-05-23T03:20:21;13.03;;;8.70;;
7833;SDS011;3962;42.696;23.354;2023-05-23T03:22:48;13.63;;;8.47;;
7833;SDS011;3962;42.696;23.354;2023-05-23T03:25:15;15.77;;;8.57;;
7833;SDS011;3962;42.696;23.354;2023-05-23T03:27:42;11.20;;;7.90;;
7833;SDS011;3962;42.696;23.354;2023-05-23T03:30:10;11.57;;;7.93;;
7833;SDS011;3962;42.696;23.354;2023-05-23T03:32:38;14.00;;;8.47;;
7833;SDS011;3962;42.696;23.354;2023-05-23T03:35:06;16.83;;;10.63;;
7833;SDS011;3962;42.696;23.354;2023-05-23T03:37:33;13.23;;;9.37;;
7833;SDS011;3962;42.696;23.354;2023-05-23T03:40:00;16.60;;;9.77;;
7833;SDS011;3962;42.696;23.354;2023-05-23T03:42:27;21.63;;;9.80;;
7833;SDS011;3962;42.696;23.354;2023-05-23T03:44:55;23.77;;;11.63;;
7833;SDS011;3962;42.696;23.354;2023-05-23T03:47:23;33.97;;;13.80;;
7833;SDS011;3962;42.696;23.354;2023-05-23T03:49:50;33.00;;;13.83;;
7833;SDS011;3962;42.696;23.354;2023-05-23T03:52:17;28.20;;;12.63;;
7833;SDS011;3962;42.696;23.354;2023-05-23T03:54:43;28.17;;;12.27;;
7833;SDS011;3962;42.696;23.354;2023-05-23T03:57:10;21.93;;;11.63;;
7833;SDS011;3962;42.696;23.354;2023-05-23T03:59:37;23.40;;;12.03;;
7833;SDS011;3962;42.696;23.354;2023-05-23T04:02:04;23.67;;;11.93;;
7833;SDS011;3962;42.696;23.354;2023-05-23T04:04:32;26.63;;;14.50;;
7833;SDS011;3962;42.696;23.354;2023-05-23T04:06:59;23.47;;;11.70;;
7833;SDS011;3962;42.696;23.354;2023-05-23T04:09:26;28.13;;;12.53;;
7833;SDS011;3962;42.696;23.354;2023-05-23T04:11:53;28.13;;;12.07;;
7833;SDS011;3962;42.696;23.354;2023-05-23T04:14:20;40.07;;;20.93;;
7833;SDS011;3962;42.696;23.354;2023-05-23T04:16:47;30.03;;;13.97;;
7833;SDS011;3962;42.696;23.354;2023-05-23T04:19:14;35.80;;;15.23;;
7833;SDS011;3962;42.696;23.354;2023-05-23T04:21:43;25.47;;;13.43;;
7833;SDS011;3962;42.696;23.354;2023-05-23T04:24:10;20.93;;;11.13;;
7833;SDS011;3962;42.696;23.354;2023-05-23T04:26:36;19.80;;;11.93;;
7833;SDS011;3962;42.696;23.354;2023-05-23T04:29:03;23.07;;;11.90;;
7833;SDS011;3962;42.696;23.354;2023-05-23T04:31:31;20.60;;;11.70;;
7833;SDS011;3962;42.696;23.354;2023-05-23T04:33:59;23.10;;;12.50;;
7833;SDS011;3962;42.696;23.354;2023-05-23T04:36:26;27.33;;;14.20;;
7833;SDS011;3962;42.696;23.354;2023-05-23T04:38:55;20.67;;;12.13;;
7833;SDS011;3962;42.696;23.354;2023-05-23T04:41:22;21.33;;;12.20;;
7833;SDS011;3962;42.696;23.354;2023-05-23T04:43:49;23.17;;;13.57;;
7833;SDS011;3962;42.696;23.354;2023-05-23T04:46:23;25.13;;;13.30;;
7833;SDS011;3962;42.696;23.354;2023-05-23T04:48:51;19.87;;;12.73;;
7833;SDS011;3962;42.696;23.354;2023-05-23T04:51:19;18.40;;;11.73;;
7833;SDS011;3962;42.696;23.354;2023-05-23T04:53:46;27.30;;;12.10;;
7833;SDS011;3962;42.696;23.354;2023-05-23T04:56:16;19.50;;;12.47;;
7833;SDS011;3962;42.696;23.354;2023-05-23T04:58:45;23.33;;;12.37;;
7833;SDS011;3962;42.696;23.354;2023-05-23T05:01:12;23.60;;;13.50;;
7833;SDS011;3962;42.696;23.354;2023-05-23T05:03:39;24.90;;;13.50;;
7833;SDS011;3962;42.696;23.354;2023-05-23T05:06:06;31.30;;;16.57;;
7833;SDS011;3962;42.696;23.354;2023-05-23T05:08:33;33.83;;;16.53;;
7833;SDS011;3962;42.696;23.354;2023-05-23T05:11:00;39.90;;;18.53;;
7833;SDS011;3962;42.696;23.354;2023-05-23T05:13:29;44.37;;;18.20;;
7833;SDS011;3962;42.696;23.354;2023-05-23T05:15:56;39.63;;;16.90;;
7833;SDS011;3962;42.696;23.354;2023-05-23T05:18:24;40.33;;;17.97;;
7833;SDS011;3962;42.696;23.354;2023-05-23T05:20:52;40.00;;;19.80;;
7833;SDS011;3962;42.696;23.354;2023-05-23T05:23:19;51.77;;;23.70;;
7833;SDS011;3962;42.696;23.354;2023-05-23T05:25:48;48.77;;;23.23;;
7833;SDS011;3962;42.696;23.354;2023-05-23T05:28:15;49.20;;;23.10;;
7833;SDS011;3962;42.696;23.354;2023-05-23T05:30:43;55.50;;;24.13;;
7833;SDS011;3962;42.696;23.354;2023-05-23T05:33:10;47.70;;;22.53;;
7833;SDS011;3962;42.696;23.354;2023-05-23T05:35:37;46.77;;;21.60;;
7833;SDS011;3962;42.696;23.354;2023-05-23T05:38:04;42.33;;;21.37;;
7833;SDS011;3962;42.696;23.354;2023-05-23T05:40:33;44.77;;;21.57;;
7833;SDS011;3962;42.696;23.354;2023-05-23T05:43:00;45.90;;;23.17;;
7833;SDS011;3962;42.696;23.354;2023-05-23T05:45:26;40.83;;;20.53;;
7833;SDS011;3962;42.696;23.354;2023-05-23T05:47:55;47.47;;;21.37;;
7833;SDS011;3962;42.696;23.354;2023-05-23T05:50:22;47.87;;;23.37;;
7833;SDS011;3962;42.696;23.354;2023-05-23T05:52:49;51.13;;;23.07;;
7833;SDS011;3962;42.696;23.354;2023-05-23T05:55:16;46.03;;;23.20;;
7833;SDS011;3962;42.696;23.354;2023-05-23T05:57:43;42.03;;;21.57;;
7833;SDS011;3962;42.696;23.354;2023-05-23T06:00:11;46.67;;;22.13;;
7833;SDS011;3962;42.696;23.354;2023-05-23T06:02:40;42.30;;;21.90;;
7833;SDS011;3962;42.696;23.354;2023-05-23T06:05:15;50.93;;;24.33;;
7833;SDS011;3962;42.696;23.354;2023-05-23T06:07:47;42.93;;;21.73;;
7833;SDS011;3962;42.696;23.354;2023-05-23T06:10:16;33.13;;;19.03;;
7833;SDS011;3962;42.696;23.354;2023-05-23T06:12:43;33.67;;;18.00;;
7833;SDS011;3962;42.696;23.354;2023-05-23T06:15:11;35.17;;;18.97;;
7833;SDS011;3962;42.696;23.354;2023-05-23T06:17:38;36.10;;;19.43;;
7833;SDS011;3962;42.696;23.354;2023-05-23T06:20:06;35.33;;;18.37;;
7833;SDS011;3962;42.696;23.354;2023-05-23T06:22:35;36.03;;;19.57;;
7833;SDS011;3962;42.696;23.354;2023-05-23T06:25:05;40.87;;;21.20;;
7833;SDS011;3962;42.696;23.354;2023-05-23T06:27:32;45.17;;;20.90;;
7833;SDS011;3962;42.696;23.354;2023-05-23T06:30:04;42.30;;;22.30;;
7833;SDS011;3962;42.696;23.354;2023-05-23T06:32:32;44.57;;;22.63;;
7833;SDS011;3962;42.696;23.354;2023-05-23T06:34:58;43.93;;;22.83;;
7833;SDS011;3962;42.696;23.354;2023-05-23T06:37:25;39.07;;;22.13;;
7833;SDS011;3962;42.696;23.354;2023-05-23T06:39:53;42.07;;;22.70;;
7833;SDS011;3962;42.696;23.354;2023-05-23T06:42:20;42.53;;;22.90;;
7833;SDS011;3962;42.696;23.354;2023-05-23T06:44:47;39.57;;;22.80;;
7833;SDS011;3962;42.696;23.354;2023-05-23T06:47:14;45.40;;;23.13;;
7833;SDS011;3962;42.696;23.354;2023-05-23T06:49:41;40.07;;;21.93;;
7833;SDS011;3962;42.696;23.354;2023-05-23T06:52:08;41.17;;;22.90;;
7833;SDS011;3962;42.696;23.354;2023-05-23T06:54:35;45.20;;;24.63;;
7833;SDS011;3962;42.696;23.354;2023-05-23T06:57:04;45.73;;;23.90;;
7833;SDS011;3962;42.696;23.354;2023-05-23T06:59:31;43.73;;;23.10;;
7833;SDS011;3962;42.696;23.354;2023-05-23T07:01:58;42.87;;;23.10;;
7833;SDS011;3962;42.696;23.354;2023-05-23T07:04:25;39.37;;;21.63;;
7833;SDS011;3962;42.696;23.354;2023-05-23T07:06:52;44.87;;;22.03;;
7833;SDS011;3962;42.696;23.354;2023-05-23T07:09:19;41.40;;;23.35;;
7833;SDS011;3962;42.696;23.354;2023-05-23T07:11:47;32.53;;;20.20;;
7833;SDS011;3962;42.696;23.354;2023-05-23T07:16:51;45.33;;;23.50;;
7833;SDS011;3962;42.696;23.354;2023-05-23T07:19:17;42.67;;;23.07;;
7833;SDS011;3962;42.696;23.354;2023-05-23T07:21:44;37.57;;;21.07;;
7833;SDS011;3962;42.696;23.354;2023-05-23T07:24:11;33.87;;;21.03;;
7833;SDS011;3962;42.696;23.354;2023-05-23T07:26:38;32.73;;;20.17;;
7833;SDS011;3962;42.696;23.354;2023-05-23T07:29:05;35.17;;;20.70;;
7833;SDS011;3962;42.696;23.354;2023-05-23T07:31:35;44.20;;;21.40;;
7833;SDS011;3962;42.696;23.354;2023-05-23T07:34:05;35.23;;;20.80;;
7833;SDS011;3962;42.696;23.354;2023-05-23T07:36:32;34.27;;;20.97;;
7833;SDS011;3962;42.696;23.354;2023-05-23T07:39:00;32.37;;;19.40;;
7833;SDS011;3962;42.696;23.354;2023-05-23T07:44:02;38.10;;;20.73;;
7833;SDS011;3962;42.696;23.354;2023-05-23T07:46:29;35.77;;;21.33;;
7833;SDS011;3962;42.696;23.354;2023-05-23T07:48:56;33.73;;;20.80;;
7833;SDS011;3962;42.696;23.354;2023-05-23T07:51:26;32.77;;;19.53;;
7833;SDS011;3962;42.696;23.354;2023-05-23T07:56:28;33.77;;;20.63;;
7833;SDS011;3962;42.696;23.354;2023-05-23T08:01:28;33.03;;;19.30;;
7833;SDS011;3962;42.696;23.354;2023-05-23T08:03:57;34.50;;;19.83;;
7833;SDS011;3962;42.696;23.354;2023-05-23T08:06:23;29.43;;;17.67;;
7833;SDS011;3962;42.696;23.354;2023-05-23T08:08:53;27.13;;;17.70;;
7833;SDS011;3962;42.696;23.354;2023-05-23T08:11:20;25.93;;;16.57;;
7833;SDS011;3962;42.696;23.354;2023-05-23T08:13:47;23.37;;;15.70;;
7833;SDS011;3962;42.696;23.354;2023-05-23T08:16:14;26.38;;;16.48;;
7833;SDS011;3962;42.696;23.354;2023-05-23T08:18:43;27.07;;;15.87;;
7833;SDS011;3962;42.696;23.354;2023-05-23T08:23:41;25.50;;;15.70;;
7833;SDS011;3962;42.696;23.354;2023-05-23T08:26:08;18.37;;;13.40;;
7833;SDS011;3962;42.696;23.354;2023-05-23T08:31:11;22.17;;;14.10;;
7833;SDS011;3962;42.696;23.354;2023-05-23T08:33:52;26.47;;;17.30;;
7833;SDS011;3962;42.696;23.354;2023-05-23T08:36:22;22.77;;;16.00;;
7833;SDS011;3962;42.696;23.354;2023-05-23T08:39:04;19.50;;;11.87;;
7833;SDS011;3962;42.696;23.354;2023-05-23T08:41:32;22.03;;;11.80;;
7833;SDS011;3962;42.696;23.354;2023-05-23T08:44:00;13.63;;;10.73;;
7833;SDS011;3962;42.696;23.354;2023-05-23T08:46:27;26.37;;;10.43;;
7833;SDS011;3962;42.696;23.354;2023-05-23T08:49:09;14.17;;;10.00;;
7833;SDS011;3962;42.696;23.354;2023-05-23T08:51:38;20.73;;;9.83;;
7833;SDS011;3962;42.696;23.354;2023-05-23T08:54:24;15.13;;;9.63;;
7833;SDS011;3962;42.696;23.354;2023-05-23T08:56:51;14.43;;;10.00;;
7833;SDS011;3962;42.696;23.354;2023-05-23T08:59:25;11.87;;;7.97;;
7833;SDS011;3962;42.696;23.354;2023-05-23T09:20:02;2.23;;;1.20;;
7833;SDS011;3962;42.696;23.354;2023-05-23T09:22:36;11.33;;;6.17;;
7833;SDS011;3962;42.696;23.354;2023-05-23T09:25:04;18.43;;;9.47;;
7833;SDS011;3962;42.696;23.354;2023-05-23T09:27:32;12.37;;;8.10;;
7833;SDS011;3962;42.696;23.354;2023-05-23T09:30:04;11.53;;;7.53;;
7833;SDS011;3962;42.696;23.354;2023-05-23T09:32:32;10.53;;;6.70;;
7833;SDS011;3962;42.696;23.354;2023-05-23T09:35:21;11.70;;;6.90;;
7833;SDS011;3962;42.696;23.354;2023-05-23T09:37:49;7.97;;;4.80;;
7833;SDS011;3962;42.696;23.354;2023-05-23T09:40:20;12.83;;;5.10;;
7833;SDS011;3962;42.696;23.354;2023-05-23T09:42:52;10.87;;;4.93;;
7833;SDS011;3962;42.696;23.354;2023-05-23T09:45:18;7.93;;;5.17;;
7833;SDS011;3962;42.696;23.354;2023-05-23T09:47:50;8.57;;;4.83;;
7833;SDS011;3962;42.696;23.354;2023-05-23T09:50:20;7.57;;;4.70;;
7833;SDS011;3962;42.696;23.354;2023-05-23T09:52:48;7.90;;;4.90;;
7833;SDS011;3962;42.696;23.354;2023-05-23T09:55:19;9.63;;;4.73;;
7833;SDS011;3962;42.696;23.354;2023-05-23T09:57:46;8.03;;;4.83;;
7833;SDS011;3962;42.696;23.354;2023-05-23T10:00:19;8.73;;;4.80;;
7833;SDS011;3962;42.696;23.354;2023-05-23T10:02:52;6.97;;;4.10;;
7833;SDS011;3962;42.696;23.354;2023-05-23T10:05:39;7.67;;;4.80;;
7833;SDS011;3962;42.696;23.354;2023-05-23T10:08:11;7.23;;;4.20;;
7833;SDS011;3962;42.696;23.354;2023-05-23T10:16:29;9.83;;;5.20;;
7833;SDS011;3962;42.696;23.354;2023-05-23T10:19:09;7.10;;;4.47;;
7833;SDS011;3962;42.696;23.354;2023-05-23T10:21:47;6.23;;;4.70;;
7833;SDS011;3962;42.696;23.354;2023-05-23T10:24:25;8.33;;;4.40;;
7833;SDS011;3962;42.696;23.354;2023-05-23T10:26:55;11.87;;;4.77;;
7833;SDS011;3962;42.696;23.354;2023-05-23T10:29:23;6.57;;;3.60;;
7833;SDS011;3962;42.696;23.354;2023-05-23T10:31:58;5.77;;;3.57;;
7833;SDS011;3962;42.696;23.354;2023-05-23T10:34:33;5.93;;;3.90;;
7833;SDS011;3962;42.696;23.354;2023-05-23T10:37:23;5.93;;;3.53;;
7833;SDS011;3962;42.696;23.354;2023-05-23T10:39:58;11.23;;;4.10;;
7833;SDS011;3962;42.696;23.354;2023-05-23T10:42:37;9.20;;;3.90;;
7833;SDS011;3962;42.696;23.354;2023-05-23T10:45:13;6.77;;;3.83;;
7833;SDS011;3962;42.696;23.354;2023-05-23T10:53:19;6.93;;;3.57;;
7833;SDS011;3962;42.696;23.354;2023-05-23T10:55:51;12.73;;;5.17;;
7833;SDS011;3962;42.696;23.354;2023-05-23T10:58:18;7.17;;;4.17;;
7833;SDS011;3962;42.696;23.354;2023-05-23T11:00:50;4.97;;;3.67;;
7833;SDS011;3962;42.696;23.354;2023-05-23T11:03:29;4.20;;;3.67;;
7833;SDS011;3962;42.696;23.354;2023-05-23T11:05:59;4.10;;;3.70;;
7833;SDS011;3962;42.696;23.354;2023-05-23T11:08:28;6.77;;;4.07;;
7833;SDS011;3962;42.696;23.354;2023-05-23T11:11:04;4.43;;;3.70;;
7833;SDS011;3962;42.696;23.354;2023-05-23T11:13:57;16.97;;;8.13;;
7833;SDS011;3962;42.696;23.354;2023-05-23T11:16:27;5.33;;;3.60;;
7833;SDS011;3962;42.696;23.354;2023-05-23T11:21:51;4.10;;;3.70;;
7833;SDS011;3962;42.696;23.354;2023-05-23T11:24:22;4.63;;;3.80;;
7833;SDS011;3962;42.696;23.354;2023-05-23T11:26:53;5.17;;;3.23;;
7833;SDS011;3962;42.696;23.354;2023-05-23T11:29:25;6.60;;;3.50;;
7833;SDS011;3962;42.696;23.354;2023-05-23T11:31:53;4.77;;;3.73;;
7833;SDS011;3962;42.696;23.354;2023-05-23T11:34:21;5.27;;;3.10;;
7833;SDS011;3962;42.696;23.354;2023-05-23T11:36:52;9.70;;;4.03;;
7833;SDS011;3962;42.696;23.354;2023-05-23T11:39:22;4.30;;;3.50;;
7833;SDS011;3962;42.696;23.354;2023-05-23T11:42:01;4.20;;;3.00;;
7833;SDS011;3962;42.696;23.354;2023-05-23T11:44:28;7.80;;;3.83;;
7833;SDS011;3962;42.696;23.354;2023-05-23T11:46:59;5.87;;;3.73;;
7833;SDS011;3962;42.696;23.354;2023-05-23T11:49:28;9.43;;;3.70;;
7833;SDS011;3962;42.696;23.354;2023-05-23T11:51:56;5.30;;;3.37;;
7833;SDS011;3962;42.696;23.354;2023-05-23T11:54:26;6.30;;;3.60;;
7833;SDS011;3962;42.696;23.354;2023-05-23T11:56:54;6.23;;;3.80;;
7833;SDS011;3962;42.696;23.354;2023-05-23T11:59:22;5.27;;;4.23;;
7833;SDS011;3962;42.696;23.354;2023-05-23T12:01:51;4.37;;;3.53;;
7833;SDS011;3962;42.696;23.354;2023-05-23T12:04:18;6.70;;;3.50;;
7833;SDS011;3962;42.696;23.354;2023-05-23T12:06:47;7.03;;;3.73;;
7833;SDS011;3962;42.696;23.354;2023-05-23T12:09:15;5.13;;;3.50;;
7833;SDS011;3962;42.696;23.354;2023-05-23T12:11:47;6.20;;;4.27;;
7833;SDS011;3962;42.696;23.354;2023-05-23T12:14:15;6.03;;;3.23;;
7833;SDS011;3962;42.696;23.354;2023-05-23T12:16:43;4.20;;;3.53;;
7833;SDS011;3962;42.696;23.354;2023-05-23T12:19:12;3.97;;;3.27;;
7833;SDS011;3962;42.696;23.354;2023-05-23T12:21:42;7.87;;;3.77;;
7833;SDS011;3962;42.696;23.354;2023-05-23T12:24:13;8.40;;;3.83;;
7833;SDS011;3962;42.696;23.354;2023-05-23T12:26:50;8.07;;;3.40;;
7833;SDS011;3962;42.696;23.354;2023-05-23T12:29:18;5.10;;;3.93;;
7833;SDS011;3962;42.696;23.354;2023-05-23T12:31:50;9.83;;;4.10;;
7833;SDS011;3962;42.696;23.354;2023-05-23T12:34:18;7.17;;;3.70;;
7833;SDS011;3962;42.696;23.354;2023-05-23T12:36:48;5.50;;;3.20;;
7833;SDS011;3962;42.696;23.354;2023-05-23T12:39:19;5.23;;;3.97;;
7833;SDS011;3962;42.696;23.354;2023-05-23T12:41:53;4.20;;;3.00;;
7833;SDS011;3962;42.696;23.354;2023-05-23T12:44:22;6.87;;;3.50;;
7833;SDS011;3962;42.696;23.354;2023-05-23T12:46:55;4.73;;;3.40;;
7833;SDS011;3962;42.696;23.354;2023-05-23T12:49:23;8.83;;;4.10;;
7833;SDS011;3962;42.696;23.354;2023-05-23T12:51:50;7.70;;;3.63;;
7833;SDS011;3962;42.696;23.354;2023-05-23T12:54:17;5.67;;;3.40;;
7833;SDS011;3962;42.696;23.354;2023-05-23T12:56:44;4.23;;;3.60;;
7833;SDS011;3962;42.696;23.354;2023-05-23T12:59:15;4.57;;;3.73;;
7833;SDS011;3962;42.696;23.354;2023-05-23T13:01:42;7.70;;;3.70;;
7833;SDS011;3962;42.696;23.354;2023-05-23T13:04:09;11.60;;;6.70;;
7833;SDS011;3962;42.696;23.354;2023-05-23T13:06:36;5.93;;;3.50;;
7833;SDS011;3962;42.696;23.354;2023-05-23T13:09:04;4.63;;;3.10;;
7833;SDS011;3962;42.696;23.354;2023-05-23T13:11:37;5.80;;;3.67;;
7833;SDS011;3962;42.696;23.354;2023-05-23T13:14:03;5.30;;;3.33;;
7833;SDS011;3962;42.696;23.354;2023-05-23T13:16:32;4.63;;;3.37;;
7833;SDS011;3962;42.696;23.354;2023-05-23T13:19:00;5.00;;;3.67;;
7833;SDS011;3962;42.696;23.354;2023-05-23T13:21:27;5.53;;;3.40;;
7833;SDS011;3962;42.696;23.354;2023-05-23T13:23:55;9.13;;;3.57;;
7833;SDS011;3962;42.696;23.354;2023-05-23T13:26:22;6.13;;;3.57;;
7833;SDS011;3962;42.696;23.354;2023-05-23T13:28:50;4.73;;;3.07;;
7833;SDS011;3962;42.696;23.354;2023-05-23T13:31:17;7.50;;;3.10;;
7833;SDS011;3962;42.696;23.354;2023-05-23T13:33:45;4.40;;;3.30;;
7833;SDS011;3962;42.696;23.354;2023-05-23T13:36:12;7.47;;;3.50;;
7833;SDS011;3962;42.696;23.354;2023-05-23T13:38:39;7.70;;;4.07;;
7833;SDS011;3962;42.696;23.354;2023-05-23T13:41:05;3.80;;;2.80;;
7833;SDS011;3962;42.696;23.354;2023-05-23T13:43:33;3.50;;;2.53;;
7833;SDS011;3962;42.696;23.354;2023-05-23T13:46:00;5.47;;;3.13;;
7833;SDS011;3962;42.696;23.354;2023-05-23T13:48:27;3.90;;;2.90;;
7833;SDS011;3962;42.696;23.354;2023-05-23T13:50:59;4.47;;;3.60;;
7833;SDS011;3962;42.696;23.354;2023-05-23T13:53:30;4.10;;;3.07;;
7833;SDS011;3962;42.696;23.354;2023-05-23T13:55:58;4.17;;;3.20;;
7833;SDS011;3962;42.696;23.354;2023-05-23T13:58:25;5.33;;;2.90;;
7833;SDS011;3962;42.696;23.354;2023-05-23T14:00:52;4.27;;;2.70;;
7833;SDS011;3962;42.696;23.354;2023-05-23T14:03:19;6.53;;;3.27;;
7833;SDS011;3962;42.696;23.354;2023-05-23T14:05:46;4.57;;;3.63;;
7833;SDS011;3962;42.696;23.354;2023-05-23T14:08:14;5.03;;;3.07;;
7833;SDS011;3962;42.696;23.354;2023-05-23T14:10:41;3.87;;;3.30;;
7833;SDS011;3962;42.696;23.354;2023-05-23T14:13:08;4.03;;;2.97;;
7833;SDS011;3962;42.696;23.354;2023-05-23T14:15:36;6.47;;;3.17;;
7833;SDS011;3962;42.696;23.354;2023-05-23T14:18:03;5.03;;;3.70;;
7833;SDS011;3962;42.696;23.354;2023-05-23T14:20:30;7.23;;;3.57;;
7833;SDS011;3962;42.696;23.354;2023-05-23T14:22:57;5.37;;;3.60;;
7833;SDS011;3962;42.696;23.354;2023-05-23T14:25:25;5.27;;;3.40;;
7833;SDS011;3962;42.696;23.354;2023-05-23T14:27:52;6.23;;;3.97;;
7833;SDS011;3962;42.696;23.354;2023-05-23T14:30:19;4.57;;;3.33;;
7833;SDS011;3962;42.696;23.354;2023-05-23T14:32:46;5.93;;;3.67;;
7833;SDS011;3962;42.696;23.354;2023-05-23T14:35:13;4.53;;;3.67;;
7833;SDS011;3962;42.696;23.354;2023-05-23T14:37:39;4.63;;;3.47;;
7833;SDS011;3962;42.696;23.354;2023-05-23T14:40:07;4.77;;;3.23;;
7833;SDS011;3962;42.696;23.354;2023-05-23T14:42:39;5.87;;;3.30;;
7833;SDS011;3962;42.696;23.354;2023-05-23T14:45:09;7.70;;;3.80;;
7833;SDS011;3962;42.696;23.354;2023-05-23T14:47:37;6.13;;;4.03;;
7833;SDS011;3962;42.696;23.354;2023-05-23T14:50:04;5.43;;;3.70;;
7833;SDS011;3962;42.696;23.354;2023-05-23T14:52:32;4.73;;;3.60;;
7833;SDS011;3962;42.696;23.354;2023-05-23T14:54:59;6.03;;;3.80;;
7833;SDS011;3962;42.696;23.354;2023-05-23T14:57:26;5.70;;;3.30;;
7833;SDS011;3962;42.696;23.354;2023-05-23T14:59:54;6.07;;;3.40;;
7833;SDS011;3962;42.696;23.354;2023-05-23T15:02:21;6.37;;;3.70;;
7833;SDS011;3962;42.696;23.354;2023-05-23T15:04:48;5.17;;;3.43;;
7833;SDS011;3962;42.696;23.354;2023-05-23T15:07:14;6.27;;;3.73;;
7833;SDS011;3962;42.696;23.354;2023-05-23T15:09:42;7.17;;;3.47;;
7833;SDS011;3962;42.696;23.354;2023-05-23T15:12:09;5.70;;;3.80;;
7833;SDS011;3962;42.696;23.354;2023-05-23T15:14:37;11.20;;;4.00;;
7833;SDS011;3962;42.696;23.354;2023-05-23T15:17:05;19.83;;;10.07;;
7833;SDS011;3962;42.696;23.354;2023-05-23T15:19:33;6.83;;;3.87;;
7833;SDS011;3962;42.696;23.354;2023-05-23T15:22:00;6.37;;;3.50;;
7833;SDS011;3962;42.696;23.354;2023-05-23T15:24:27;7.67;;;4.07;;
7833;SDS011;3962;42.696;23.354;2023-05-23T15:26:54;5.40;;;3.70;;
7833;SDS011;3962;42.696;23.354;2023-05-23T15:29:21;4.93;;;3.57;;
7833;SDS011;3962;42.696;23.354;2023-05-23T15:31:49;5.17;;;3.40;;
7833;SDS011;3962;42.696;23.354;2023-05-23T15:34:17;5.13;;;3.73;;
7833;SDS011;3962;42.696;23.354;2023-05-23T15:36:44;5.60;;;3.57;;
7833;SDS011;3962;42.696;23.354;2023-05-23T15:39:11;8.30;;;3.50;;
7833;SDS011;3962;42.696;23.354;2023-05-23T15:41:38;4.67;;;3.33;;
7833;SDS011;3962;42.696;23.354;2023-05-23T15:44:05;7.43;;;3.50;;